createdAt,value
2023-01-21T01:56:39.496Z,26.96
2023-01-21T01:57:45.155Z,27.62
2023-01-21T01:58:48.783Z,27.54
2023-01-21T01:59:50.977Z,27.22
2023-01-21T02:00:53.103Z,28.19
2023-01-21T02:01:58.230Z,25.89
2023-01-21T02:03:00.988Z,25.48
2023-01-21T02:04:07.343Z,26.59
2023-01-21T02:05:11.481Z,24.09
2023-01-21T02:06:15.430Z,25.76
2023-01-21T02:07:19.980Z,23.98
2023-01-21T02:08:23.371Z,25.69
2023-01-21T02:09:25.390Z,23.66
2023-01-21T02:10:27.672Z,24.61
2023-01-21T02:11:29.661Z,25.52
2023-01-21T02:12:33.095Z,24.71
2023-01-21T02:13:36.889Z,24.36
2023-01-21T02:14:41.051Z,23.54
2023-01-21T02:15:46.840Z,23.88
2023-01-21T02:16:52.800Z,24.08
2023-01-21T02:18:19.804Z,23.61
2023-01-21T02:19:42.592Z,23.83
2023-01-21T02:21:04.417Z,23.01
2023-01-21T02:22:28.479Z,23.12
2023-01-21T02:23:52.439Z,24.08
2023-01-21T02:26:50.732Z,22.95
2023-01-21T02:28:08.647Z,23.88
2023-01-21T02:31:43.595Z,23.03
2023-01-21T02:32:59.343Z,22.47
2023-01-21T02:34:23.044Z,22.73
2023-01-21T02:35:44.349Z,23.52
2023-01-21T02:40:44.894Z,23.26
2023-01-21T02:42:11.565Z,21.19
2023-01-21T02:43:41.313Z,22.23
2023-01-21T02:47:34.500Z,22.24
2023-01-21T02:48:42.901Z,22.32
2023-01-21T02:50:18.658Z,20.98
2023-01-21T02:51:22.641Z,21.19
2023-01-21T02:52:26.171Z,21.28
2023-01-21T02:53:34.050Z,22.32
2023-01-21T02:54:42.615Z,21.11
2023-01-21T02:55:44.656Z,21.58
2023-01-21T02:56:47.055Z,21.07
2023-01-21T02:57:52.713Z,20.69
2023-01-21T03:00:12.732Z,20.54
2023-01-21T03:01:35.279Z,20.86
2023-01-21T03:03:03.863Z,20.46
2023-01-21T03:04:27.854Z,22.14
2023-01-21T03:05:50.507Z,22.09
2023-01-21T03:07:16.951Z,21.57
2023-01-21T03:08:22.107Z,21.21
2023-01-21T03:09:31.549Z,20.70
2023-01-21T03:10:41.376Z,20.11
2023-01-21T03:11:47.053Z,19.96
2023-01-21T03:13:10.597Z,20.28
2023-01-21T03:14:19.078Z,20.64
2023-01-21T03:15:24.910Z,20.54
2023-01-21T03:16:31.111Z,20.58
2023-01-21T03:18:01.099Z,20.84
2023-01-21T03:19:06.994Z,21.25
2023-01-21T03:20:16.367Z,19.67
2023-01-21T03:21:22.317Z,20.19
2023-01-21T03:22:28.111Z,20.23
2023-01-21T03:23:33.879Z,20.63
2023-01-21T03:24:39.634Z,20.66
2023-01-21T03:25:41.717Z,18.96
2023-01-21T03:26:47.442Z,18.87
2023-01-21T03:27:51.728Z,19.93
2023-01-21T03:28:57.504Z,20.24
2023-01-21T03:30:15.418Z,19.76
2023-01-21T03:31:23.949Z,18.32
2023-01-21T03:32:29.418Z,19.83
2023-01-21T03:33:35.188Z,19.50
2023-01-21T03:34:40.870Z,18.79
2023-01-21T03:35:46.669Z,20.22
2023-01-21T03:37:01.931Z,19.15
2023-01-21T03:38:20.169Z,18.88
2023-01-21T03:39:37.896Z,19.58
2023-01-21T03:40:43.771Z,19.37
2023-01-21T03:41:45.929Z,17.96
2023-01-21T03:42:50.175Z,17.89
2023-01-21T03:43:53.518Z,18.72
2023-01-21T03:44:56.015Z,18.53
2023-01-21T03:46:04.819Z,18.95
2023-01-21T03:49:33.470Z,18.19
2023-01-21T03:50:42.376Z,17.91
2023-01-21T03:51:51.291Z,18.46
2023-01-21T03:52:53.357Z,18.53
2023-01-21T03:53:56.743Z,18.86
2023-01-21T03:54:59.058Z,17.83
2023-01-21T03:56:01.047Z,19.33
2023-01-21T03:57:04.031Z,17.95
2023-01-21T03:58:06.068Z,17.23
2023-01-21T03:59:08.588Z,17.21
2023-01-21T04:00:12.247Z,17.53
2023-01-21T04:01:14.384Z,17.99
2023-01-21T04:02:16.656Z,17.57
2023-01-21T04:03:18.808Z,18.91
2023-01-21T04:04:21.038Z,18.96
2023-01-21T04:05:24.243Z,17.99
2023-01-21T04:06:26.407Z,18.51
2023-01-21T04:07:29.098Z,18.88
2023-01-21T04:08:30.988Z,17.57
2023-01-21T04:09:32.889Z,17.25
2023-01-21T04:10:35.195Z,17.77
2023-01-21T04:11:37.069Z,17.51
2023-01-21T04:12:38.950Z,17.97
2023-01-21T04:13:41.183Z,17.23
2023-01-21T04:14:43.356Z,17.70
2023-01-21T04:15:45.365Z,18.02
2023-01-21T04:16:47.342Z,18.08
2023-01-21T04:17:49.568Z,17.71
2023-01-21T04:18:51.601Z,17.88
2023-01-21T04:19:53.819Z,17.67
2023-01-21T04:20:56.182Z,18.47
2023-01-21T04:21:58.578Z,17.79
2023-01-21T04:23:01.362Z,17.98
2023-01-21T04:24:04.360Z,16.99
2023-01-21T04:25:06.998Z,19.11
2023-01-21T04:26:10.169Z,17.61
2023-01-21T04:27:12.079Z,17.84
2023-01-21T04:28:14.199Z,16.29
2023-01-21T04:29:16.189Z,17.29
2023-01-21T04:30:18.798Z,16.67
2023-01-21T04:31:21.068Z,17.07
2023-01-21T04:32:23.321Z,16.01
2023-01-21T04:33:27.120Z,16.89
2023-01-21T04:34:29.579Z,17.64
2023-01-21T04:35:33.479Z,16.71
2023-01-21T04:36:35.626Z,18.11
2023-01-21T04:37:37.537Z,15.95
2023-01-21T04:38:39.692Z,17.17
2023-01-21T04:39:41.582Z,17.56
2023-01-21T04:40:43.660Z,17.04
2023-01-21T04:41:48.578Z,16.90
2023-01-21T04:42:50.581Z,17.62
2023-01-21T04:43:52.488Z,17.67
2023-01-21T04:44:54.419Z,17.56
2023-01-21T04:45:56.390Z,16.91
2023-01-21T04:46:58.423Z,16.65
2023-01-21T04:48:00.445Z,16.63
2023-01-21T04:49:02.353Z,17.00
2023-01-21T04:50:05.487Z,16.96
2023-01-21T04:51:07.525Z,16.70
2023-01-21T04:52:09.478Z,16.93
2023-01-21T04:53:11.942Z,16.81
2023-01-21T04:54:14.876Z,17.00
2023-01-21T04:55:17.049Z,15.52
2023-01-21T04:56:19.453Z,17.64
2023-01-21T04:57:21.443Z,16.53
2023-01-21T04:58:23.465Z,16.57
2023-01-21T04:59:25.332Z,16.43
2023-01-21T05:00:27.540Z,15.55
2023-01-21T05:01:29.560Z,16.89
2023-01-21T05:02:32.455Z,16.43
2023-01-21T05:03:34.481Z,15.86
2023-01-21T05:04:36.342Z,15.61
2023-01-21T05:05:38.243Z,16.00
2023-01-21T05:06:40.439Z,16.81
2023-01-21T05:07:42.412Z,17.29
2023-01-21T05:08:44.300Z,16.60
2023-01-21T05:09:48.420Z,16.75
2023-01-21T05:10:50.535Z,16.75
2023-01-21T05:11:52.495Z,15.97
2023-01-21T05:12:54.527Z,17.12
2023-01-21T05:13:56.426Z,16.97
2023-01-21T05:14:58.312Z,16.76
2023-01-21T05:16:07.242Z,16.33
2023-01-21T05:17:09.246Z,15.60
2023-01-21T05:18:12.214Z,16.77
2023-01-21T05:19:14.187Z,15.93
2023-01-21T05:20:17.316Z,16.74
2023-01-21T05:21:19.386Z,16.61
2023-01-21T05:22:21.286Z,17.67
2023-01-21T05:23:23.335Z,16.29
2023-01-21T05:24:25.475Z,16.46
2023-01-21T05:25:27.356Z,16.11
2023-01-21T05:26:29.549Z,16.85
2023-01-21T05:27:33.667Z,16.65
2023-01-21T05:28:35.613Z,15.59
2023-01-21T05:29:37.490Z,17.35
2023-01-21T05:30:41.338Z,17.93
2023-01-21T05:31:44.232Z,16.28
2023-01-21T05:32:51.270Z,16.87
2023-01-21T05:33:53.287Z,15.87
2023-01-21T05:34:55.393Z,16.56
2023-01-21T05:35:57.765Z,17.01
2023-01-21T05:36:59.857Z,17.88
2023-01-21T05:38:01.848Z,16.09
2023-01-21T05:39:04.599Z,15.17
2023-01-21T05:40:09.477Z,16.39
2023-01-21T05:41:11.737Z,15.72
2023-01-21T05:42:13.821Z,16.24
2023-01-21T05:43:15.712Z,15.95
2023-01-21T05:44:17.953Z,17.93
2023-01-21T05:45:20.169Z,17.14
2023-01-21T05:46:22.769Z,15.72
2023-01-21T05:47:24.855Z,16.54
2023-01-21T05:48:27.280Z,17.72
2023-01-21T05:49:29.384Z,16.65
2023-01-21T05:50:31.944Z,15.61
2023-01-21T05:51:33.814Z,15.67
2023-01-21T05:52:36.320Z,17.27
2023-01-21T05:53:38.432Z,15.99
2023-01-21T05:54:52.407Z,16.51
2023-01-21T05:55:44.265Z,15.50
2023-01-21T05:56:46.331Z,16.32
2023-01-21T05:57:48.657Z,17.07
2023-01-21T05:58:51.867Z,14.50
2023-01-21T05:59:53.772Z,16.53
2023-01-21T06:00:57.131Z,15.95
2023-01-21T06:01:59.040Z,15.86
2023-01-21T06:03:01.789Z,16.53
2023-01-21T06:04:04.199Z,15.96
2023-01-21T06:05:07.189Z,15.87
2023-01-21T06:06:10.283Z,15.98
2023-01-21T06:07:12.230Z,15.74
2023-01-21T06:08:14.320Z,16.25
2023-01-21T06:09:16.217Z,15.91
2023-01-21T06:10:19.738Z,16.25
2023-01-21T06:11:21.677Z,16.00
2023-01-21T06:12:24.818Z,15.86
2023-01-21T06:13:27.189Z,15.40
2023-01-21T06:14:29.084Z,16.66
2023-01-21T06:15:31.152Z,15.67
2023-01-21T06:16:33.211Z,17.36
2023-01-21T06:17:40.296Z,16.78
2023-01-21T06:18:42.269Z,15.61
2023-01-21T06:19:44.219Z,15.58
2023-01-21T06:20:46.931Z,16.41
2023-01-21T06:21:51.578Z,15.98
2023-01-21T06:22:53.512Z,15.41
2023-01-21T06:23:55.512Z,16.96
2023-01-21T06:24:57.406Z,15.70
2023-01-21T06:26:00.299Z,16.35
2023-01-21T06:27:02.198Z,15.06
2023-01-21T06:28:04.497Z,15.58
2023-01-21T06:29:06.493Z,15.29
2023-01-21T06:30:10.175Z,16.91
2023-01-21T06:31:12.221Z,16.76
2023-01-21T06:32:14.383Z,15.93
2023-01-21T06:33:16.398Z,15.68
2023-01-21T06:34:18.425Z,16.93
2023-01-21T06:35:20.621Z,16.19
2023-01-21T06:36:23.071Z,16.29
2023-01-21T06:37:25.209Z,15.19
2023-01-21T06:38:27.222Z,16.77
2023-01-21T06:39:29.121Z,14.89
2023-01-21T06:40:31.205Z,17.67
2023-01-21T06:41:33.667Z,14.94
2023-01-21T06:42:36.066Z,15.86
2023-01-21T06:43:38.085Z,16.92
2023-01-21T06:44:40.091Z,15.61
2023-01-21T06:45:43.020Z,15.95
2023-01-21T06:46:55.852Z,15.06
2023-01-21T06:47:49.667Z,15.39
2023-01-21T06:48:52.212Z,15.53
2023-01-21T06:49:54.403Z,16.48
2023-01-21T06:50:59.717Z,15.71
2023-01-21T06:52:02.460Z,16.06
2023-01-21T06:53:04.369Z,15.82
2023-01-21T06:54:06.377Z,15.47
2023-01-21T06:55:09.624Z,15.80
2023-01-21T06:56:11.805Z,15.18
2023-01-21T06:57:14.504Z,15.85
2023-01-21T06:58:16.499Z,16.77
2023-01-21T06:59:19.252Z,16.21
2023-01-21T07:00:22.082Z,15.74
2023-01-21T07:01:24.162Z,14.96
2023-01-21T07:02:26.825Z,15.12
2023-01-21T07:03:28.889Z,15.95
2023-01-21T07:04:30.828Z,15.19
2023-01-21T07:05:33.012Z,15.63
2023-01-21T07:06:36.122Z,14.66
2023-01-21T07:07:38.500Z,15.48
2023-01-21T07:08:40.416Z,15.72
2023-01-21T07:09:42.282Z,15.75
2023-01-21T07:10:47.761Z,15.93
2023-01-21T07:11:49.721Z,15.23
2023-01-21T07:12:51.815Z,13.73
2023-01-21T07:13:53.695Z,16.49
2023-01-21T07:14:55.700Z,15.87
2023-01-21T07:16:01.464Z,16.27
2023-01-21T07:17:04.389Z,16.19
2023-01-21T07:18:06.263Z,15.94
2023-01-21T07:19:08.134Z,15.81
2023-01-21T07:20:11.125Z,15.89
2023-01-21T07:21:13.457Z,15.73
2023-01-21T07:22:15.340Z,16.17
2023-01-21T07:23:17.254Z,15.63
2023-01-21T07:24:19.415Z,14.87
2023-01-21T07:25:21.301Z,16.05
2023-01-21T07:26:23.282Z,15.98
2023-01-21T07:27:26.100Z,14.80
2023-01-21T07:28:27.978Z,15.93
2023-01-21T07:29:29.907Z,15.49
2023-01-21T07:30:32.108Z,15.73
2023-01-21T07:31:35.310Z,15.46
2023-01-21T07:32:37.365Z,15.64
2023-01-21T07:33:39.954Z,15.33
2023-01-21T07:34:42.151Z,16.64
2023-01-21T07:35:44.019Z,16.05
2023-01-21T07:36:46.021Z,16.23
2023-01-21T07:37:47.914Z,16.09
2023-01-21T07:38:49.918Z,15.85
2023-01-21T07:39:54.508Z,16.56
2023-01-21T07:40:56.028Z,15.61
2023-01-21T07:41:58.231Z,15.81
2023-01-21T07:43:00.383Z,16.80
2023-01-21T07:44:02.273Z,15.02
2023-01-21T07:45:05.699Z,16.43
2023-01-21T07:46:08.629Z,15.66
2023-01-21T07:47:10.748Z,15.88
2023-01-21T07:48:13.215Z,15.98
2023-01-21T07:49:15.195Z,14.85
2023-01-21T07:50:18.138Z,15.99
2023-01-21T07:51:21.871Z,16.05
2023-01-21T07:52:25.234Z,15.40
2023-01-21T07:53:27.303Z,16.73
2023-01-21T07:54:29.248Z,16.34
2023-01-21T07:55:31.683Z,16.04
2023-01-21T07:56:33.660Z,16.62
2023-01-21T07:57:35.594Z,15.21
2023-01-21T07:58:38.083Z,14.35
2023-01-21T07:59:40.064Z,16.16
2023-01-21T08:00:42.051Z,16.42
2023-01-21T08:01:44.509Z,15.71
2023-01-21T08:02:52.260Z,15.95
2023-01-21T08:03:54.240Z,15.43
2023-01-21T08:04:56.117Z,15.65
2023-01-21T08:05:58.154Z,16.19
2023-01-21T08:07:00.433Z,15.15
2023-01-21T08:08:03.325Z,15.65
2023-01-21T08:09:05.404Z,15.27
2023-01-21T08:10:09.023Z,16.27
2023-01-21T08:11:10.906Z,15.79
2023-01-21T08:12:12.792Z,17.45
2023-01-21T08:13:14.738Z,16.35
2023-01-21T08:14:16.938Z,15.71
2023-01-21T08:15:19.314Z,15.83
2023-01-21T08:16:21.868Z,15.88
2023-01-21T08:17:24.069Z,17.89
2023-01-21T08:18:25.937Z,14.96
2023-01-21T08:19:27.830Z,16.74
2023-01-21T11:51:30.765Z,22.89
2023-01-21T11:52:32.679Z,24.16
2023-01-21T11:53:34.573Z,22.55
2023-01-21T11:54:39.481Z,22.42
2023-01-21T11:55:45.246Z,22.99
2023-01-21T11:56:59.806Z,23.67
2023-01-21T11:58:02.173Z,22.15
2023-01-21T11:59:19.716Z,22.25
2023-01-21T12:00:26.332Z,22.90
2023-01-21T12:01:28.466Z,20.87
2023-01-21T12:02:37.440Z,21.79
2023-01-21T12:03:46.079Z,22.49
2023-01-21T12:04:57.786Z,23.01
2023-01-21T12:06:00.374Z,21.19
2023-01-21T12:07:04.403Z,22.60
2023-01-21T12:08:07.120Z,22.53
2023-01-21T12:09:13.461Z,20.33
2023-01-21T12:10:31.339Z,20.59
2023-01-21T12:11:33.488Z,21.19
2023-01-21T12:13:08.264Z,20.41
2023-01-21T12:14:20.169Z,21.76
2023-01-21T12:18:06.980Z,20.64
2023-01-21T12:22:20.757Z,20.55
2023-01-21T12:23:46.948Z,20.96
2023-01-21T12:25:01.701Z,23.52
2023-01-21T12:26:27.434Z,20.13
2023-01-21T12:27:48.598Z,20.76
2023-01-21T12:29:00.308Z,20.13
2023-01-21T12:30:21.116Z,21.23
2023-01-21T12:31:29.810Z,20.71
2023-01-21T12:32:41.606Z,21.13
2023-01-21T12:33:53.358Z,22.05
2023-01-21T12:35:01.981Z,21.42
2023-01-21T12:36:07.820Z,21.65
2023-01-21T12:37:20.128Z,22.16
2023-01-21T12:38:27.243Z,22.03
2023-01-21T12:39:32.520Z,22.05
2023-01-21T12:43:01.548Z,21.15
2023-01-21T12:44:25.855Z,22.86
2023-01-21T12:45:34.963Z,20.91
2023-01-21T12:46:40.929Z,21.87
2023-01-21T12:47:55.936Z,20.44
2023-01-21T12:49:07.762Z,21.43
2023-01-21T12:50:25.613Z,22.18
2023-01-21T12:51:34.050Z,20.41
2023-01-21T12:52:46.034Z,21.77
2023-01-21T12:53:56.493Z,20.55
2023-01-21T12:57:35.950Z,21.04
2023-01-21T12:58:41.653Z,20.22
2023-01-21T12:59:53.104Z,19.81
2023-01-21T13:00:59.022Z,18.17
2023-01-21T13:02:24.701Z,19.52
2023-01-21T13:03:51.732Z,19.51
2023-01-21T13:05:12.892Z,21.73
2023-01-21T13:06:47.228Z,21.42
2023-01-21T13:07:44.352Z,20.29
2023-01-21T13:09:20.627Z,20.69
2023-01-21T13:10:32.276Z,19.71
2023-01-21T13:11:44.150Z,19.11
2023-01-21T13:12:53.028Z,21.08
2023-01-21T13:14:10.803Z,19.93
2023-01-21T13:15:25.445Z,19.19
2023-01-21T13:16:29.267Z,18.98
2023-01-21T13:17:34.593Z,19.87
2023-01-21T13:18:40.393Z,20.19
2023-01-21T13:19:42.330Z,19.44
2023-01-21T13:20:51.249Z,19.03
2023-01-21T13:22:02.560Z,20.27
2023-01-21T13:23:14.045Z,18.06
2023-01-21T13:24:21.722Z,18.42
2023-01-21T13:25:36.339Z,18.89
2023-01-21T13:26:45.121Z,17.86
2023-01-21T13:27:50.831Z,16.94
2023-01-21T13:29:02.698Z,17.44
2023-01-21T13:30:18.516Z,17.36
2023-01-21T13:31:33.625Z,17.08
2023-01-21T13:32:55.514Z,17.14
2023-01-21T13:34:10.354Z,16.07
2023-01-21T13:35:21.889Z,17.69
2023-01-21T13:37:58.558Z,17.59
2023-01-21T13:39:24.296Z,17.93
2023-01-21T13:40:45.362Z,16.52
2023-01-21T13:41:54.117Z,15.84
2023-01-21T13:43:15.072Z,15.81
2023-01-21T13:44:29.507Z,15.88
2023-01-21T13:45:38.297Z,16.50
2023-01-21T13:47:18.754Z,16.72
2023-01-21T13:48:41.084Z,15.18
2023-01-21T13:50:10.079Z,15.79
2023-01-21T13:51:27.778Z,16.67
2023-01-21T13:53:04.843Z,16.99
2023-01-21T13:54:19.693Z,17.73
2023-01-21T13:57:22.297Z,15.19
2023-01-21T13:59:59.053Z,17.22
2023-01-21T14:01:04.952Z,18.31
2023-01-21T14:02:17.029Z,17.02
2023-01-21T14:03:28.985Z,16.79
2023-01-21T14:04:40.739Z,17.36
2023-01-21T14:05:46.433Z,18.55
2023-01-21T14:06:54.927Z,17.47
2023-01-21T14:08:03.605Z,17.92
2023-01-21T14:09:20.970Z,17.08
2023-01-21T14:10:29.070Z,16.77
2023-01-21T14:11:37.809Z,16.94
2023-01-21T14:13:06.559Z,18.30
2023-01-21T14:14:41.264Z,18.38
2023-01-21T14:16:07.311Z,18.14
2023-01-21T14:19:53.156Z,17.75
2023-01-21T14:21:32.844Z,17.58
2023-01-21T14:22:58.952Z,17.21
2023-01-21T14:24:38.442Z,18.59
2023-01-21T14:25:52.752Z,18.18
2023-01-21T14:27:15.432Z,17.92
2023-01-21T14:28:47.355Z,17.23
2023-01-21T14:29:55.937Z,18.05
2023-01-21T14:31:11.587Z,18.82
2023-01-21T14:32:41.760Z,17.43
2023-01-21T14:33:50.089Z,18.24
2023-01-21T14:35:20.390Z,17.76
2023-01-21T14:36:35.173Z,17.67
2023-01-21T14:37:46.975Z,19.81
2023-01-21T14:38:52.710Z,18.31
2023-01-21T14:40:01.169Z,18.78
2023-01-21T14:41:07.019Z,18.21
2023-01-21T14:42:12.075Z,19.41
2023-01-21T14:45:54.876Z,17.77
2023-01-21T14:47:20.191Z,19.31
2023-01-21T14:48:34.044Z,18.95
2023-01-21T14:49:41.608Z,18.76
2023-01-21T14:50:53.132Z,19.78
2023-01-21T14:52:57.204Z,20.05
2023-01-21T14:54:05.503Z,20.38
2023-01-21T14:55:28.172Z,19.66
2023-01-21T14:56:36.022Z,18.83
2023-01-21T14:57:41.256Z,19.60
2023-01-21T14:58:48.672Z,18.94
2023-01-21T14:59:53.393Z,18.47
2023-01-21T15:00:56.065Z,19.33
2023-01-21T15:02:01.483Z,19.02
2023-01-21T15:03:15.822Z,18.68
2023-01-21T15:04:27.631Z,18.12
2023-01-21T15:05:36.037Z,18.23
2023-01-21T15:06:40.147Z,19.82
2023-01-21T15:07:44.974Z,19.58
2023-01-21T15:08:50.555Z,18.48
2023-01-21T15:09:59.399Z,17.88
2023-01-21T15:11:04.358Z,18.28
2023-01-21T15:12:13.550Z,17.75
2023-01-21T15:13:28.112Z,19.69
2023-01-21T15:14:36.393Z,17.22
2023-01-21T15:16:01.664Z,19.08
2023-01-21T15:17:05.236Z,16.57
2023-01-21T15:18:22.632Z,17.38
2023-01-21T15:19:31.032Z,18.38
2023-01-21T15:20:45.830Z,17.89
2023-01-21T15:22:17.724Z,18.37
2023-01-21T15:23:32.631Z,17.61
2023-01-21T15:24:38.357Z,18.24
2023-01-21T15:26:02.611Z,17.02
2023-01-21T15:27:23.292Z,17.59
2023-01-21T15:28:47.197Z,17.91
2023-01-21T15:29:59.059Z,17.26
2023-01-21T15:31:04.746Z,19.12
2023-01-21T15:32:31.541Z,17.52
2023-01-21T15:35:55.788Z,18.58
2023-01-21T15:36:58.681Z,19.19
2023-01-21T15:38:14.684Z,17.96
2023-01-21T15:39:29.030Z,17.60
2023-01-21T15:40:37.988Z,17.93
2023-01-21T15:41:49.859Z,18.14
2023-01-21T15:43:14.838Z,17.79
2023-01-21T15:44:43.372Z,17.93
2023-01-21T15:45:52.098Z,15.56
2023-01-21T15:49:23.592Z,17.08
2023-01-21T15:50:41.222Z,17.13
2023-01-21T15:52:03.523Z,16.33
2023-01-21T15:53:09.390Z,15.32
2023-01-21T15:54:20.868Z,15.37
2023-01-21T15:56:45.352Z,15.89
2023-01-21T15:58:02.683Z,15.53
2023-01-21T15:59:23.790Z,15.76
2023-01-21T16:00:50.738Z,16.33
2023-01-21T16:02:23.116Z,16.27
2023-01-21T16:03:38.205Z,15.83
2023-01-21T16:04:43.975Z,17.74
2023-01-21T19:49:22.025Z,21.37
2023-01-21T19:50:27.234Z,22.65
2023-01-21T19:51:31.981Z,23.53
2023-01-21T19:52:33.030Z,25.39
2023-01-21T19:53:35.374Z,24.75
2023-01-21T19:54:37.250Z,25.04
2023-01-21T19:55:40.653Z,24.20
2023-01-21T19:56:43.213Z,23.42
2023-01-21T19:57:47.016Z,21.63
2023-01-21T19:58:49.798Z,22.74
2023-01-21T19:59:52.781Z,23.18
2023-01-21T20:00:55.536Z,22.06
2023-01-21T20:01:57.672Z,23.22
2023-01-21T20:03:02.256Z,22.35
2023-01-21T20:04:04.566Z,21.88
2023-01-21T20:05:07.595Z,21.69
2023-01-21T20:06:10.481Z,22.34
2023-01-21T20:07:13.955Z,21.86
2023-01-21T20:08:19.620Z,20.74
2023-01-21T20:09:21.634Z,22.64
2023-01-21T20:10:26.798Z,22.10
2023-01-21T20:11:28.956Z,22.11
2023-01-21T20:12:30.925Z,21.31
2023-01-21T20:13:32.823Z,22.68
2023-01-21T20:14:34.719Z,21.13
2023-01-21T20:15:37.104Z,20.64
2023-01-21T20:16:45.615Z,19.79
2023-01-21T20:17:51.287Z,20.77
2023-01-21T20:18:53.715Z,22.19
2023-01-21T20:19:55.609Z,21.27
2023-01-21T20:20:57.581Z,21.97
2023-01-21T20:22:02.507Z,19.89
2023-01-21T20:23:03.448Z,21.59
2023-01-21T20:24:07.334Z,20.39
2023-01-21T20:25:15.252Z,20.02
2023-01-21T20:26:24.203Z,19.21
2023-01-21T20:27:26.128Z,20.98
2023-01-21T20:28:40.807Z,21.51
2023-01-21T20:29:49.444Z,20.12
2023-01-21T20:30:48.720Z,20.25
2023-01-21T20:31:50.829Z,19.05
2023-01-21T20:32:57.118Z,20.06
2023-01-21T20:33:59.246Z,19.82
2023-01-21T20:35:01.250Z,20.79
2023-01-21T20:36:10.017Z,20.30
2023-01-21T20:37:13.641Z,20.22
2023-01-21T20:38:18.286Z,20.11
2023-01-21T20:39:20.372Z,21.38
2023-01-21T20:40:25.267Z,20.47
2023-01-21T20:41:27.290Z,19.56
2023-01-21T20:43:31.195Z,21.61
2023-01-21T20:44:33.168Z,21.87
2023-01-21T20:45:38.801Z,21.37
2023-01-21T20:46:41.935Z,20.87
2023-01-21T20:47:50.091Z,19.97
2023-01-21T20:48:51.552Z,21.02
2023-01-21T20:49:53.580Z,21.42
2023-01-21T20:50:55.728Z,21.99
2023-01-21T20:51:58.884Z,21.84
2023-01-21T20:53:04.480Z,20.35
2023-01-21T20:54:06.385Z,21.02
2023-01-21T20:55:09.551Z,20.62
2023-01-21T20:56:18.932Z,20.94
2023-01-21T20:57:21.988Z,21.13
2023-01-21T20:58:23.861Z,21.65
2023-01-21T20:59:25.751Z,21.75
2023-01-21T21:00:36.103Z,21.33
2023-01-21T21:01:38.500Z,21.03
2023-01-21T21:02:40.404Z,21.97
2023-01-21T21:03:43.275Z,20.74
2023-01-21T21:04:45.182Z,21.39
2023-01-21T21:05:48.524Z,20.70
2023-01-21T21:06:50.559Z,22.24
2023-01-21T21:07:53.206Z,20.69
2023-01-21T21:08:58.062Z,21.11
2023-01-21T21:09:59.974Z,21.56
2023-01-21T21:11:01.961Z,22.73
2023-01-21T21:12:04.474Z,22.30
2023-01-21T21:13:06.854Z,22.03
2023-01-21T21:14:08.756Z,23.57
2023-01-21T21:15:11.262Z,21.44
2023-01-21T21:16:20.511Z,22.35
2023-01-21T21:17:22.599Z,22.50
2023-01-21T21:18:26.585Z,24.47
2023-01-21T21:19:28.552Z,23.41
2023-01-21T21:21:43.148Z,26.95
2023-01-21T21:22:46.672Z,25.44
2023-01-21T21:23:48.562Z,26.44
2023-01-21T21:24:50.430Z,27.13
2023-01-21T21:25:52.416Z,25.73
2023-01-21T21:26:54.706Z,27.00
2023-01-21T21:27:56.787Z,28.07
2023-01-21T21:28:59.683Z,26.66
2023-01-21T21:30:01.752Z,27.47
2023-01-21T21:31:04.401Z,27.51
2023-01-21T21:32:09.612Z,26.27
2023-01-21T21:33:18.140Z,26.97
2023-01-21T21:34:20.327Z,24.29
2023-01-21T21:35:31.057Z,27.21
2023-01-21T21:36:33.186Z,25.58
2023-01-21T21:37:35.070Z,26.74
2023-01-21T21:38:37.463Z,26.49
2023-01-21T21:39:39.437Z,26.55
2023-01-21T21:40:46.063Z,25.99
2023-01-21T21:41:47.984Z,26.44
2023-01-21T21:42:53.317Z,26.29
2023-01-21T21:43:55.233Z,25.99
2023-01-21T21:44:57.133Z,24.72
2023-01-21T21:46:07.177Z,26.15
2023-01-21T21:47:12.758Z,24.74
2023-01-21T21:50:30.262Z,26.12
2023-01-21T21:51:32.167Z,26.56
2023-01-21T21:52:34.288Z,27.00
2023-01-21T21:53:37.705Z,26.76
2023-01-21T21:54:39.828Z,26.56
2023-01-21T21:55:41.710Z,26.49
2023-01-21T21:56:44.207Z,25.64
2023-01-21T21:57:46.628Z,26.62
2023-01-21T21:58:50.505Z,27.27
2023-01-21T21:59:53.291Z,26.78
2023-01-21T22:00:55.589Z,26.84
2023-01-21T22:01:57.680Z,27.41
2023-01-21T22:02:59.624Z,25.75
2023-01-21T22:04:03.038Z,27.01
2023-01-21T22:05:06.718Z,27.11
2023-01-21T22:06:10.407Z,26.79
2023-01-21T22:07:12.454Z,27.54
2023-01-21T22:08:14.745Z,26.87
2023-01-21T22:09:16.688Z,28.24
2023-01-21T22:10:18.911Z,27.44
2023-01-21T22:11:22.514Z,25.95
2023-01-21T22:12:24.500Z,28.01
2023-01-21T22:13:30.449Z,27.69
2023-01-21T22:14:32.518Z,27.74
2023-01-21T22:15:34.476Z,26.90
2023-01-21T22:16:37.819Z,27.28
2023-01-21T22:17:39.842Z,30.01
2023-01-21T22:18:42.773Z,26.97
2023-01-21T22:19:44.972Z,29.53
2023-01-21T22:20:48.629Z,28.44
2023-01-21T22:21:50.531Z,30.39
2023-01-21T22:22:52.429Z,31.84
2023-01-21T22:23:54.663Z,28.27
2023-01-21T22:24:56.646Z,30.07
2023-01-21T22:26:00.576Z,32.24
2023-01-21T22:27:04.134Z,31.43
2023-01-21T22:28:06.293Z,31.25
2023-01-21T22:29:08.184Z,31.09
2023-01-21T22:30:11.968Z,32.38
2023-01-21T22:31:17.598Z,32.89
2023-01-21T22:32:19.638Z,32.58
2023-01-21T22:33:21.524Z,32.19
2023-01-21T22:34:23.406Z,31.71
2023-01-21T22:35:25.543Z,31.36
2023-01-21T22:36:29.592Z,30.45
2023-01-21T22:37:31.582Z,31.13
2023-01-21T22:38:36.047Z,32.17
2023-01-21T22:39:37.983Z,29.86
2023-01-21T22:40:40.757Z,31.36
2023-01-21T22:41:42.848Z,31.98
2023-01-21T22:42:44.843Z,29.17
2023-01-21T22:43:48.371Z,30.97
2023-01-21T22:44:50.471Z,31.23
2023-01-21T22:45:55.462Z,30.91
2023-01-21T22:46:57.539Z,31.72
2023-01-21T22:48:00.593Z,30.94
2023-01-21T22:49:02.936Z,31.93
2023-01-21T22:50:06.705Z,30.67
2023-01-21T22:51:11.452Z,32.28
2023-01-21T22:52:13.508Z,30.51
2023-01-21T22:53:15.378Z,30.60
2023-01-21T22:54:17.295Z,30.26
2023-01-21T22:55:19.666Z,30.51
2023-01-21T22:56:39.924Z,30.31
2023-01-21T22:57:28.150Z,30.51
2023-01-21T22:58:31.628Z,28.94
2023-01-21T22:59:33.565Z,30.61
2023-01-21T23:00:40.254Z,31.59
2023-01-21T23:01:42.716Z,29.41
2023-01-21T23:02:44.799Z,31.35
2023-01-21T23:03:46.666Z,30.06
2023-01-21T23:04:48.642Z,29.81
2023-01-21T23:05:51.741Z,31.67
2023-01-21T23:06:53.772Z,30.81
2023-01-21T23:07:56.025Z,30.56
2023-01-21T23:08:58.881Z,30.55
2023-01-21T23:10:00.829Z,29.83
2023-01-21T23:11:04.856Z,29.23
2023-01-21T23:12:07.025Z,30.85
2023-01-21T23:13:09.834Z,29.18
2023-01-21T23:14:12.206Z,30.83
2023-01-21T23:15:14.720Z,30.99
2023-01-21T23:16:19.311Z,29.12
2023-01-21T23:17:21.448Z,30.13
2023-01-21T23:18:25.273Z,30.21
2023-01-21T23:19:27.416Z,30.41
2023-01-21T23:20:29.486Z,30.55
2023-01-21T23:21:31.376Z,28.32
2023-01-21T23:22:33.941Z,30.65
2023-01-21T23:23:35.958Z,29.62
2023-01-21T23:24:37.855Z,30.48
2023-01-21T23:25:42.762Z,30.96
2023-01-21T23:26:44.997Z,31.06
2023-01-21T23:27:46.857Z,30.05
2023-01-21T23:28:54.458Z,30.89
2023-01-21T23:29:56.426Z,33.37
2023-01-21T23:31:08.110Z,30.42
2023-01-21T23:32:10.145Z,32.55
2023-01-21T23:33:12.128Z,33.89
2023-01-21T23:34:14.342Z,32.24
2023-01-21T23:35:16.208Z,32.74
2023-01-21T23:36:18.535Z,35.68
2023-01-21T23:37:20.460Z,31.81
2023-01-21T23:38:22.325Z,31.32
2023-01-21T23:39:24.204Z,30.39
2023-01-21T23:40:26.392Z,31.19
2023-01-21T23:41:28.365Z,30.43
2023-01-21T23:42:30.246Z,31.77
2023-01-21T23:43:32.418Z,30.48
2023-01-21T23:44:34.322Z,30.92
2023-01-21T23:45:38.490Z,28.79
2023-01-21T23:46:40.528Z,30.62
2023-01-21T23:47:42.806Z,28.49
2023-01-21T23:48:45.248Z,28.86
2023-01-21T23:49:47.147Z,28.88
2023-01-21T23:50:49.871Z,30.01
2023-01-21T23:51:51.885Z,31.29
